Time;durP1;ratioP1;P1;durP2;ratioP2;P2;SDS_P1;SDS_P2;PMS_P1;PMS_P2;Temp;Humidity;BMP_temperature;BMP_pressure;BME280_temperature;BME280_humidity;BME280_pressure;Samples;Min_cycle;Max_cycle;Signal;HPM_P1;HPM_P2
2022/04/13 00:01:56;;;;;;;11.57;7.50;;;12.60;99.90;;;;;;5011201;28;20041;-76
2022/04/13 00:04:22;;;;;;;13.07;7.00;;;12.60;99.90;;;;;;5011037;28;20050;-76
2022/04/13 00:06:47;;;;;;;12.65;6.60;;;12.50;99.90;;;;;;5011053;28;20275;-76
2022/04/13 00:09:13;;;;;;;10.98;7.50;;;12.50;99.90;;;;;;5010857;28;20057;-76
2022/04/13 00:11:39;;;;;;;12.63;7.60;;;12.50;99.90;;;;;;5010525;28;20046;-76
2022/04/13 00:14:05;;;;;;;13.90;7.13;;;12.50;99.90;;;;;;5011027;28;20116;-76
2022/04/13 00:16:30;;;;;;;9.85;6.97;;;12.50;99.90;;;;;;5012049;28;20034;-76
2022/04/13 00:18:56;;;;;;;13.27;7.57;;;12.50;99.90;;;;;;5010939;28;20135;-76
2022/04/13 00:21:21;;;;;;;11.65;7.60;;;12.50;99.90;;;;;;4993605;28;20037;-76
2022/04/13 00:23:47;;;;;;;11.00;6.70;;;12.50;99.90;;;;;;5012142;28;20041;-76
2022/04/13 00:26:12;;;;;;;14.00;6.60;;;12.50;99.90;;;;;;5010509;28;20077;-76
2022/04/13 00:28:38;;;;;;;10.85;6.97;;;12.40;99.90;;;;;;5010673;28;20136;-76
2022/04/13 00:31:04;;;;;;;12.30;7.00;;;12.40;99.90;;;;;;5011373;28;20038;-76
2022/04/13 00:33:29;;;;;;;15.10;6.28;;;12.40;99.90;;;;;;5010537;28;20045;-76
2022/04/13 00:35:56;;;;;;;11.43;6.28;;;12.40;99.90;;;;;;5010752;28;20048;-76
2022/04/13 00:38:22;;;;;;;9.85;6.20;;;12.40;99.90;;;;;;5010432;28;20405;-76
2022/04/13 00:40:48;;;;;;;10.15;6.55;;;12.50;99.90;;;;;;5011212;28;20092;-76
2022/04/13 00:43:14;;;;;;;11.98;6.82;;;12.50;99.90;;;;;;5010561;28;20046;-76
2022/04/13 00:45:47;;;;;;;8.85;6.07;;;12.50;99.90;;;;;;5010413;28;20432;-76
2022/04/13 00:48:37;;;;;;;9.95;5.32;;;12.50;99.90;;;;;;5010480;28;20053;-76
2022/04/13 00:51:03;;;;;;;11.05;5.68;;;12.50;99.90;;;;;;5000337;28;20062;-76
2022/04/13 00:53:30;;;;;;;8.70;6.43;;;12.50;99.90;;;;;;5010542;28;20560;-76
2022/04/13 00:55:58;;;;;;;7.75;5.55;;;12.60;99.90;;;;;;5010141;28;20045;-76
2022/04/13 00:58:27;;;;;;;16.27;6.03;;;12.60;99.90;;;;;;5010177;28;20460;-76
2022/04/13 01:00:53;;;;;;;13.52;6.65;;;12.60;99.90;;;;;;5009686;28;20045;-76
2022/04/13 01:03:22;;;;;;;8.95;6.03;;;12.60;99.90;;;;;;5010480;28;20460;-76
2022/04/13 01:05:49;;;;;;;8.82;6.13;;;12.50;99.90;;;;;;5010520;28;20589;-76
2022/04/13 01:08:17;;;;;;;10.35;6.18;;;12.50;99.90;;;;;;5010042;28;20085;-76
2022/04/13 01:10:44;;;;;;;9.15;5.55;;;12.40;99.90;;;;;;5009497;28;20045;-76
2022/04/13 01:13:10;;;;;;;15.52;6.90;;;12.50;99.90;;;;;;5010201;28;20049;-76
2022/04/13 01:15:36;;;;;;;9.70;5.88;;;12.40;99.90;;;;;;5009908;28;20042;-76
2022/04/13 01:18:02;;;;;;;10.65;5.95;;;12.40;99.90;;;;;;5026301;28;20053;-76
2022/04/13 01:20:28;;;;;;;10.48;5.97;;;12.40;99.90;;;;;;5009523;28;20042;-76
2022/04/13 01:22:54;;;;;;;14.25;7.00;;;12.30;99.90;;;;;;5010090;28;20160;-76
2022/04/13 01:25:19;;;;;;;13.73;6.45;;;12.30;99.90;;;;;;5009920;28;20045;-76
2022/04/13 01:27:45;;;;;;;12.75;6.22;;;12.20;99.90;;;;;;4993348;28;20038;-76
2022/04/13 01:30:11;;;;;;;9.75;6.57;;;12.30;99.90;;;;;;4993360;28;20062;-76
2022/04/13 01:32:37;;;;;;;12.15;7.70;;;12.30;99.90;;;;;;5009965;28;20188;-76
2022/04/13 01:35:03;;;;;;;15.65;6.38;;;12.20;99.90;;;;;;5009889;28;20066;-76
2022/04/13 01:37:28;;;;;;;10.90;5.75;;;12.10;99.90;;;;;;5009654;28;20053;-76
2022/04/13 01:39:54;;;;;;;9.05;6.28;;;12.10;99.90;;;;;;5009647;28;20451;-76
2022/04/13 01:42:20;;;;;;;14.70;6.38;;;12.10;99.90;;;;;;5009599;28;20078;-76
2022/04/13 01:44:46;;;;;;;8.85;6.10;;;12.00;99.90;;;;;;5009825;28;20444;-76
2022/04/13 01:47:11;;;;;;;9.63;6.05;;;12.00;99.90;;;;;;5009770;28;20049;-76
2022/04/13 01:49:37;;;;;;;13.65;7.05;;;11.90;99.90;;;;;;5009366;28;20096;-76
2022/04/13 01:52:07;;;;;;;9.52;6.20;;;11.80;99.90;;;;;;4993213;28;20042;-76
2022/04/13 01:54:33;;;;;;;12.60;6.72;;;11.70;99.90;;;;;;5009226;28;20285;-76
2022/04/13 01:56:59;;;;;;;14.45;7.10;;;11.70;99.90;;;;;;5009461;28;20050;-76
2022/04/13 01:59:24;;;;;;;13.93;7.38;;;11.70;99.90;;;;;;5009629;28;20074;-76
2022/04/13 02:01:50;;;;;;;11.73;7.22;;;11.60;99.90;;;;;;5012158;28;20046;-76
2022/04/13 02:04:20;;;;;;;10.93;7.03;;;11.60;99.90;;;;;;5014475;28;20038;-76
2022/04/13 02:06:47;;;;;;;8.90;6.25;;;11.60;99.90;;;;;;5013451;28;20045;-76
2022/04/13 02:09:13;;;;;;;10.50;7.20;;;11.50;99.90;;;;;;5013167;28;20045;-76
2022/04/13 02:11:38;;;;;;;10.43;7.18;;;11.50;99.90;;;;;;5012678;28;20069;-76
2022/04/13 02:14:04;;;;;;;11.05;6.97;;;11.40;99.90;;;;;;5013439;28;20061;-76
2022/04/13 02:16:30;;;;;;;13.27;6.55;;;11.40;99.90;;;;;;5012723;28;20054;-76
2022/04/13 02:18:55;;;;;;;12.20;7.13;;;11.40;99.90;;;;;;4996716;28;20044;-76
2022/04/13 02:21:21;;;;;;;9.68;6.15;;;11.40;99.90;;;;;;5012432;28;20049;-76
2022/04/13 02:23:46;;;;;;;13.23;7.43;;;11.40;99.90;;;;;;5014281;28;20123;-76
2022/04/13 02:26:12;;;;;;;12.75;6.57;;;11.40;99.90;;;;;;5013052;28;20033;-76
2022/04/13 02:28:38;;;;;;;12.25;6.78;;;11.40;99.90;;;;;;5013380;28;20456;-76
2022/04/13 02:31:03;;;;;;;9.60;7.03;;;11.40;99.90;;;;;;5012510;28;20038;-76
2022/04/13 02:33:31;;;;;;;12.15;7.20;;;11.40;99.90;;;;;;5012891;28;20105;-76
2022/04/13 02:35:58;;;;;;;14.77;6.78;;;11.40;99.90;;;;;;5012680;28;20128;-76
2022/04/13 02:38:23;;;;;;;10.80;6.63;;;11.40;99.90;;;;;;5012564;28;20405;-76
2022/04/13 02:40:49;;;;;;;15.27;6.40;;;11.50;99.90;;;;;;5011875;28;20050;-76
2022/04/13 02:43:15;;;;;;;12.65;6.68;;;11.50;99.90;;;;;;5013771;28;20042;-76
2022/04/13 02:45:41;;;;;;;17.08;7.38;;;11.50;99.90;;;;;;5012671;28;20049;-76
2022/04/13 02:48:07;;;;;;;12.23;7.28;;;11.50;99.90;;;;;;5012573;28;20042;-76
2022/04/13 02:50:33;;;;;;;13.35;6.40;;;11.40;99.90;;;;;;4995636;28;20092;-76
2022/04/13 02:52:59;;;;;;;9.02;6.70;;;11.40;99.90;;;;;;5012435;28;20057;-76
2022/04/13 02:55:25;;;;;;;12.32;7.43;;;11.40;99.90;;;;;;5012238;28;20493;-76
2022/04/13 02:57:50;;;;;;;12.43;7.65;;;11.30;99.90;;;;;;5012373;28;20046;-76
2022/04/13 03:00:16;;;;;;;17.85;7.10;;;11.30;99.90;;;;;;4995802;28;20054;-76
2022/04/13 03:02:44;;;;;;;14.93;7.18;;;11.20;99.90;;;;;;4995949;28;20037;-76
2022/04/13 03:05:10;;;;;;;9.40;7.55;;;11.20;99.90;;;;;;5013815;28;20085;-76
2022/04/13 03:07:36;;;;;;;13.52;6.93;;;11.20;99.90;;;;;;5012301;28;20049;-76
2022/04/13 03:10:03;;;;;;;14.15;7.85;;;11.10;99.90;;;;;;5012037;28;20531;-76
2022/04/13 03:12:29;;;;;;;13.50;7.80;;;11.10;99.90;;;;;;5010881;28;20520;-76
2022/04/13 03:14:54;;;;;;;12.38;7.15;;;11.10;99.90;;;;;;4996017;28;20045;-76
2022/04/13 03:17:20;;;;;;;16.52;8.52;;;11.00;99.90;;;;;;5011994;28;20042;-76
2022/04/13 03:19:46;;;;;;;14.15;7.72;;;11.00;99.90;;;;;;5012007;28;20041;-76
2022/04/13 03:22:11;;;;;;;12.18;7.32;;;11.00;99.90;;;;;;5011263;28;20485;-76
2022/04/13 03:24:37;;;;;;;16.08;8.05;;;11.00;99.90;;;;;;5012986;28;20038;-76
2022/04/13 03:27:03;;;;;;;14.82;7.68;;;10.90;99.90;;;;;;5013111;28;20405;-76
2022/04/13 03:29:28;;;;;;;13.68;8.15;;;10.90;99.90;;;;;;5012158;28;20042;-76
2022/04/13 03:31:54;;;;;;;14.27;8.68;;;10.90;99.90;;;;;;5011576;28;20543;-76
2022/04/13 03:34:20;;;;;;;16.08;8.98;;;10.90;99.90;;;;;;5011890;28;20069;-75
2022/04/13 03:36:47;;;;;;;23.17;8.98;;;10.80;99.90;;;;;;5012881;28;20127;-75
2022/04/13 03:39:14;;;;;;;17.20;8.95;;;10.80;99.90;;;;;;5011760;28;20552;-75
2022/04/13 03:41:39;;;;;;;15.93;8.07;;;10.80;99.90;;;;;;5011064;28;20048;-75
2022/04/13 03:44:06;;;;;;;15.52;8.35;;;10.80;99.90;;;;;;5010958;28;20042;-76
2022/04/13 03:46:32;;;;;;;14.77;7.90;;;10.80;99.90;;;;;;5011588;28;20144;-76
2022/04/13 03:48:58;;;;;;;16.80;8.65;;;10.70;99.90;;;;;;5011396;28;20050;-76
2022/04/13 03:51:23;;;;;;;16.30;8.57;;;10.70;99.90;;;;;;5010655;28;20088;-76
2022/04/13 03:53:49;;;;;;;18.70;9.32;;;10.70;99.90;;;;;;5010587;28;20061;-76
2022/04/13 03:56:15;;;;;;;16.88;8.90;;;10.80;99.90;;;;;;5011019;28;20041;-77
2022/04/13 03:58:40;;;;;;;18.17;9.27;;;10.70;99.90;;;;;;5010981;28;20046;-76
2022/04/13 04:01:07;;;;;;;19.05;9.52;;;10.70;99.90;;;;;;5010581;28;20387;-76
2022/04/13 04:03:34;;;;;;;19.38;9.55;;;10.70;99.90;;;;;;5010484;28;20046;-77
2022/04/13 04:06:00;;;;;;;14.50;8.85;;;10.70;99.90;;;;;;5009932;28;20046;-76
2022/04/13 04:08:26;;;;;;;19.20;9.90;;;10.70;99.90;;;;;;5008932;28;20477;-76
2022/04/13 04:10:52;;;;;;;20.25;9.88;;;10.70;99.90;;;;;;5009554;28;20149;-76
2022/04/13 04:13:18;;;;;;;15.73;9.60;;;10.70;99.90;;;;;;5010127;28;20550;-76
2022/04/13 04:15:44;;;;;;;17.55;8.77;;;10.70;99.90;;;;;;5009642;28;20037;-76
2022/04/13 04:18:09;;;;;;;25.92;10.15;;;10.60;99.90;;;;;;5008849;28;20053;-76
2022/04/13 04:20:35;;;;;;;21.23;10.35;;;10.60;99.90;;;;;;5008718;28;20088;-76
2022/04/13 04:23:00;;;;;;;13.68;8.70;;;10.60;99.90;;;;;;4993912;28;20117;-76
2022/04/13 04:25:26;;;;;;;14.20;9.30;;;10.60;99.90;;;;;;5011824;28;20046;-75
2022/04/13 04:27:51;;;;;;;19.17;8.35;;;10.60;99.90;;;;;;5011623;28;20474;-75
2022/04/13 04:30:17;;;;;;;17.23;9.10;;;10.50;99.90;;;;;;5010288;28;20092;-75
2022/04/13 04:32:42;;;;;;;22.55;10.70;;;10.50;99.90;;;;;;5010464;28;20516;-76
2022/04/13 04:35:08;;;;;;;15.25;9.25;;;10.50;99.90;;;;;;5011621;28;20381;-75
2022/04/13 04:37:34;;;;;;;17.60;9.27;;;10.50;99.90;;;;;;5009920;28;20046;-76
2022/04/13 04:40:00;;;;;;;14.25;10.02;;;10.50;99.90;;;;;;5009957;28;20386;-76
2022/04/13 04:42:27;;;;;;;22.48;10.45;;;10.50;99.90;;;;;;5010326;28;20049;-75
2022/04/13 04:44:59;;;;;;;24.25;12.20;;;10.40;99.90;;;;;;5010447;28;20401;-76
2022/04/13 04:47:25;;;;;;;22.38;10.25;;;10.40;99.90;;;;;;5010084;28;20038;-76
2022/04/13 04:49:51;;;;;;;36.42;16.98;;;10.40;99.90;;;;;;5009784;28;20052;-76
2022/04/13 04:52:16;;;;;;;25.60;11.80;;;10.40;99.90;;;;;;5011239;28;20033;-78
2022/04/13 04:54:42;;;;;;;19.88;10.80;;;10.40;99.90;;;;;;4993565;28;20400;-76
2022/04/13 04:57:11;;;;;;;22.20;10.82;;;10.50;99.90;;;;;;5009862;28;20061;-77
2022/04/13 04:59:36;;;;;;;27.20;11.55;;;10.50;99.90;;;;;;5009412;28;20069;-78
2022/04/13 05:02:02;;;;;;;26.38;10.73;;;10.50;99.90;;;;;;5009939;28;20092;-76
2022/04/13 05:04:27;;;;;;;21.30;10.85;;;10.50;99.90;;;;;;5010113;28;20050;-76
2022/04/13 05:06:53;;;;;;;21.08;10.70;;;10.60;99.90;;;;;;5009691;28;20042;-76
2022/04/13 05:09:20;;;;;;;23.98;12.20;;;10.60;99.90;;;;;;5009487;28;20073;-77
2022/04/13 05:11:46;;;;;;;18.30;10.65;;;10.70;99.90;;;;;;5009779;28;20459;-77
2022/04/13 05:14:12;;;;;;;22.25;11.05;;;10.80;99.90;;;;;;5009698;28;20132;-77
2022/04/13 05:16:37;;;;;;;24.92;12.38;;;10.80;99.90;;;;;;5009846;28;20065;-77
2022/04/13 05:19:03;;;;;;;20.05;11.48;;;10.80;99.90;;;;;;5009087;28;20489;-78
2022/04/13 05:21:28;;;;;;;29.55;15.90;;;10.90;99.90;;;;;;5009296;28;20045;-77
2022/04/13 05:23:54;;;;;;;21.58;11.02;;;10.90;99.90;;;;;;5009933;28;20675;-76
2022/04/13 05:26:19;;;;;;;20.55;11.23;;;10.90;99.90;;;;;;5009682;28;20496;-77
2022/04/13 05:28:46;;;;;;;20.33;11.32;;;11.00;99.90;;;;;;5009615;28;20046;-79
2022/04/13 05:31:11;;;;;;;40.95;20.10;;;11.00;99.90;;;;;;5013774;28;20057;-81
2022/04/13 05:33:37;;;;;;;43.90;22.00;;;11.00;99.90;;;;;;4996584;28;20046;-81
2022/04/13 05:36:03;;;;;;;40.72;18.95;;;11.00;99.90;;;;;;5013076;28;20041;-78
2022/04/13 05:38:29;;;;;;;28.20;13.98;;;11.00;99.90;;;;;;5003066;28;20382;-80
2022/04/13 05:40:55;;;;;;;26.67;14.80;;;11.00;99.90;;;;;;5001030;28;20041;-79
2022/04/13 05:43:21;;;;;;;22.60;12.73;;;11.10;99.90;;;;;;5018156;28;20497;-79
2022/04/13 05:45:46;;;;;;;24.73;12.13;;;11.10;99.90;;;;;;5018294;28;20052;-80
2022/04/13 05:48:12;;;;;;;22.05;10.90;;;11.10;99.90;;;;;;5008056;28;20038;-81
2022/04/13 05:50:37;;;;;;;21.80;11.25;;;11.20;99.90;;;;;;5023589;28;20068;-80
2022/04/13 05:53:03;;;;;;;20.27;10.40;;;11.20;99.90;;;;;;5010389;28;20049;-81
2022/04/13 05:55:29;;;;;;;21.35;12.02;;;11.20;99.90;;;;;;5010208;28;20038;-81
2022/04/13 05:57:55;;;;;;;29.10;10.90;;;11.20;99.90;;;;;;5026621;28;20153;-81
2022/04/13 06:00:21;;;;;;;23.92;12.57;;;11.30;99.90;;;;;;5026081;28;20046;-80
2022/04/13 06:02:47;;;;;;;20.10;10.93;;;11.30;99.90;;;;;;5027887;28;20081;-82
2022/04/13 06:05:13;;;;;;;24.08;11.55;;;11.40;99.90;;;;;;5026396;28;20038;-80
2022/04/13 06:07:40;;;;;;;19.83;11.30;;;11.40;99.90;;;;;;5027993;28;20381;-80
2022/04/13 06:10:06;;;;;;;19.25;10.07;;;11.40;99.90;;;;;;5027024;28;20061;-80
2022/04/13 06:12:32;;;;;;;20.42;10.27;;;11.60;99.90;;;;;;5029342;28;20042;-80
2022/04/13 06:15:05;;;;;;;23.27;11.48;;;11.70;99.90;;;;;;5030527;28;20046;-82
2022/04/13 06:17:31;;;;;;;17.58;10.27;;;11.80;99.90;;;;;;5028759;28;20049;-81
2022/04/13 06:19:57;;;;;;;19.33;11.05;;;12.00;99.90;;;;;;5025741;28;20030;-79
2022/04/13 06:22:22;;;;;;;19.60;10.70;;;12.20;99.90;;;;;;5009749;28;20037;-81
2022/04/13 06:24:51;;;;;;;18.55;9.88;;;12.40;99.90;;;;;;5028773;28;20082;-84
2022/04/13 06:27:18;;;;;;;16.38;10.02;;;12.60;99.90;;;;;;5010140;28;20042;-82
2022/04/13 06:29:44;;;;;;;20.10;9.90;;;12.70;99.90;;;;;;5024136;28;20080;-82
2022/04/13 06:32:10;;;;;;;16.17;9.50;;;12.90;99.90;;;;;;5025218;28;20046;-83
2022/04/13 06:34:37;;;;;;;14.15;9.57;;;13.00;99.90;;;;;;5025514;28;20120;-82
2022/04/13 06:37:02;;;;;;;19.65;9.68;;;13.00;99.90;;;;;;5025716;28;20559;-81
2022/04/13 06:39:28;;;;;;;19.42;10.35;;;13.10;99.90;;;;;;5009065;28;20042;-82
2022/04/13 06:41:54;;;;;;;45.25;22.00;;;13.30;99.90;;;;;;5025824;28;20046;-81
2022/04/13 06:44:19;;;;;;;36.38;18.27;;;13.40;99.90;;;;;;5026673;28;20046;-83
2022/04/13 06:46:45;;;;;;;21.38;11.50;;;13.50;99.90;;;;;;5023828;28;20100;-81
2022/04/13 06:49:10;;;;;;;30.20;13.93;;;13.60;99.90;;;;;;5026299;28;20081;-81
2022/04/13 06:51:36;;;;;;;28.83;14.80;;;13.70;99.90;;;;;;5024678;28;20408;-82
2022/04/13 06:54:01;;;;;;;23.30;12.40;;;13.70;99.90;;;;;;5027254;28;20065;-82
2022/04/13 06:56:27;;;;;;;18.38;9.75;;;13.70;99.90;;;;;;5023101;28;20046;-82
2022/04/13 06:58:53;;;;;;;20.40;9.75;;;13.80;99.90;;;;;;5024794;28;20030;-82
2022/04/13 07:01:18;;;;;;;16.73;8.70;;;13.90;99.90;;;;;;5023364;28;20045;-82
2022/04/13 07:03:44;;;;;;;16.98;7.93;;;13.90;99.90;;;;;;5024041;28;20494;-82
2022/04/13 07:06:09;;;;;;;13.07;7.93;;;14.00;99.90;;;;;;5021325;28;20121;-82
2022/04/13 07:08:35;;;;;;;17.77;8.02;;;14.10;99.90;;;;;;5024446;28;20038;-82
2022/04/13 07:11:00;;;;;;;16.45;8.38;;;14.20;99.90;;;;;;5005356;28;20071;-82
2022/04/13 07:13:26;;;;;;;13.57;8.00;;;14.40;99.90;;;;;;5023530;28;20045;-80
2022/04/13 07:15:52;;;;;;;13.25;6.75;;;14.70;99.90;;;;;;5007638;28;20049;-82
2022/04/13 07:18:19;;;;;;;11.93;7.18;;;15.10;99.90;;;;;;5025405;28;20068;-81
2022/04/13 07:20:44;;;;;;;13.82;7.07;;;15.60;99.90;;;;;;5023596;28;20048;-82
2022/04/13 07:23:10;;;;;;;10.43;6.90;;;15.70;99.90;;;;;;5006715;28;20042;-81
2022/04/13 07:25:36;;;;;;;12.50;7.80;;;15.70;99.90;;;;;;5023274;28;20421;-81
2022/04/13 07:28:02;;;;;;;11.90;6.60;;;15.70;99.90;;;;;;5022219;28;20093;-82
2022/04/13 07:30:27;;;;;;;14.68;6.95;;;15.70;99.90;;;;;;5020110;28;20053;-84
2022/04/13 07:32:55;;;;;;;11.88;6.43;;;15.70;99.90;;;;;;5026386;28;20040;-82
2022/04/13 07:35:21;;;;;;;11.43;7.28;;;15.80;99.90;;;;;;5007225;28;20049;-82
2022/04/13 07:37:47;;;;;;;14.57;6.93;;;15.70;99.90;;;;;;5018000;28;20193;-81
2022/04/13 07:40:14;;;;;;;12.80;6.57;;;15.70;99.90;;;;;;5022746;28;20132;-83
2022/04/13 07:42:40;;;;;;;9.15;6.20;;;15.80;99.90;;;;;;5020262;28;20037;-82
2022/04/13 07:45:07;;;;;;;11.43;6.20;;;15.70;99.90;;;;;;5025568;28;20038;-82
2022/04/13 07:47:33;;;;;;;13.23;5.68;;;15.70;99.90;;;;;;5024359;28;20049;-82
2022/04/13 07:49:59;;;;;;;10.88;6.03;;;15.70;99.90;;;;;;5024070;28;20033;-81
2022/04/13 07:52:25;;;;;;;15.40;6.20;;;15.70;99.90;;;;;;5020729;28;20508;-82
2022/04/13 07:54:50;;;;;;;10.38;6.00;;;15.70;99.90;;;;;;5021079;28;20056;-82
2022/04/13 07:57:16;;;;;;;10.13;5.60;;;15.70;99.90;;;;;;5023960;28;20108;-82
2022/04/13 07:59:42;;;;;;;10.18;5.38;;;15.90;99.90;;;;;;5021321;28;20037;-81
2022/04/13 08:02:08;;;;;;;15.43;6.03;;;15.90;99.90;;;;;;5022188;28;20489;-84
2022/04/13 08:04:35;;;;;;;12.10;5.90;;;15.90;99.90;;;;;;5025011;28;20064;-82
2022/04/13 08:07:01;;;;;;;10.77;6.10;;;15.80;99.90;;;;;;5020292;28;20042;-82
2022/04/13 08:09:26;;;;;;;10.52;6.00;;;15.90;99.90;;;;;;5006797;28;20064;-84
2022/04/13 08:11:52;;;;;;;11.80;5.93;;;16.10;99.90;;;;;;5023655;28;20046;-82
2022/04/13 08:14:22;;;;;;;12.07;6.45;;;16.20;99.90;;;;;;5019495;28;20084;-82
2022/04/13 08:16:48;;;;;;;15.90;6.95;;;16.20;99.90;;;;;;5002132;28;20085;-81
2022/04/13 08:19:14;;;;;;;10.32;5.35;;;16.20;99.90;;;;;;5018408;28;20261;-82
2022/04/13 08:21:39;;;;;;;10.73;5.03;;;15.90;99.90;;;;;;5018976;28;20059;-81
2022/04/13 08:24:06;;;;;;;11.05;5.15;;;15.80;99.90;;;;;;5016666;28;20042;-81
2022/04/13 08:26:31;;;;;;;14.63;5.50;;;15.80;99.90;;;;;;5023007;28;20045;-81
2022/04/13 08:28:57;;;;;;;11.27;5.13;;;16.30;99.90;;;;;;5020851;28;20050;-82
2022/04/13 08:31:23;;;;;;;11.32;5.50;;;16.90;99.90;;;;;;5020801;28;20076;-83
2022/04/13 08:33:48;;;;;;;9.93;4.97;;;17.30;99.90;;;;;;5018089;28;20037;-82
2022/04/13 08:36:14;;;;;;;11.13;5.32;;;17.20;99.90;;;;;;5002793;28;20048;-81
2022/04/13 08:38:40;;;;;;;12.00;6.70;;;17.20;99.90;;;;;;5017774;28;20044;-81
2022/04/13 08:41:15;;;;;;;10.55;6.40;;;17.40;99.90;;;;;;5003234;28;20128;-82
2022/04/13 08:43:47;;;;;;;14.18;5.95;;;17.80;99.90;;;;;;5003252;28;20048;-82
2022/04/13 08:46:15;;;;;;;;;;;18.20;99.90;;;;;;5006664;28;20481;-82
2022/04/13 08:48:44;;;;;;;12.63;5.15;;;18.40;99.90;;;;;;5024133;28;19959;-81
2022/04/13 08:51:15;;;;;;;10.68;4.97;;;18.50;99.90;;;;;;5019931;28;20045;-81
2022/04/13 08:53:44;;;;;;;7.63;4.68;;;18.50;99.90;;;;;;5021350;28;20099;-81
2022/04/13 08:56:13;;;;;;;10.70;4.80;;;18.80;99.90;;;;;;5019574;28;20038;-82
2022/04/13 08:59:04;;;;;;;10.18;4.60;;;18.90;99.90;;;;;;5003457;28;20041;-82
2022/04/13 09:01:36;;;;;;;8.88;5.10;;;19.20;99.90;;;;;;5026377;28;20065;-82
2022/04/13 09:04:06;;;;;;;;;;;19.30;99.90;;;;;;5024129;28;20049;-83
2022/04/13 09:06:33;;;;;;;10.52;4.85;;;19.60;99.90;;;;;;5021740;28;20005;-79
2022/04/13 09:09:01;;;;;;;7.78;5.05;;;19.90;99.90;;;;;;5013928;28;20368;-79
2022/04/13 09:11:30;;;;;;;9.73;4.50;;;20.20;99.90;;;;;;5014280;28;20409;-83
2022/04/13 09:13:58;;;;;;;12.55;5.18;;;20.40;99.90;;;;;;5022024;28;20062;-82
2022/04/13 09:16:23;;;;;;;10.88;5.45;;;20.30;99.90;;;;;;5006483;28;20053;-82
2022/04/13 09:18:49;;;;;;;9.30;5.30;;;20.20;99.90;;;;;;5015532;28;20041;-79
2022/04/13 09:21:18;;;;;;;11.00;4.65;;;20.00;99.90;;;;;;5013157;28;20172;-79
2022/04/13 09:23:44;;;;;;;12.75;4.38;;;20.00;99.90;;;;;;5014029;28;20155;-79
2022/04/13 09:26:10;;;;;;;10.75;4.50;;;19.70;99.90;;;;;;5012678;28;20034;-79
2022/04/13 09:28:37;;;;;;;8.35;4.50;;;19.50;99.90;;;;;;4999842;28;20080;-83
2022/04/13 09:31:04;;;;;;;10.32;4.45;;;19.50;99.90;;;;;;5026047;28;20037;-82
2022/04/13 09:33:30;;;;;;;7.15;4.15;;;19.70;99.90;;;;;;5020448;28;20117;-82
2022/04/13 09:35:55;;;;;;;7.80;4.45;;;19.70;99.90;;;;;;5006657;28;20046;-83
2022/04/13 09:38:21;;;;;;;10.10;5.57;;;19.70;99.90;;;;;;5021239;28;20046;-83
2022/04/13 09:40:49;;;;;;;10.60;4.30;;;19.80;99.90;;;;;;5024809;28;20048;-83
2022/04/13 09:43:22;;;;;;;19.88;6.72;;;19.90;99.90;;;;;;5017767;28;20465;-82
2022/04/13 09:45:50;;;;;;;8.50;4.55;;;19.90;99.90;;;;;;5016035;28;20049;-80
2022/04/13 09:48:21;;;;;;;7.28;4.05;;;20.20;99.90;;;;;;5015300;28;20054;-79
2022/04/13 09:50:49;;;;;;;5.05;3.38;;;20.30;99.90;;;;;;5013207;28;20052;-80
2022/04/13 09:53:16;;;;;;;8.27;3.30;;;20.50;99.90;;;;;;5032495;28;20081;-79
2022/04/13 09:55:43;;;;;;;7.20;3.42;;;20.90;99.90;;;;;;5017613;28;20046;-80
2022/04/13 09:58:13;;;;;;;8.13;3.58;;;21.30;99.90;;;;;;5013922;28;20046;-81
2022/04/13 10:00:41;;;;;;;8.25;3.53;;;21.50;99.90;;;;;;5015858;28;20045;-80
2022/04/13 10:03:18;;;;;;;7.18;4.07;;;21.40;99.90;;;;;;5015044;28;20034;-80
2022/04/13 10:05:46;;;;;;;3.85;2.05;;;21.00;99.90;;;;;;5020921;28;20041;-79
2022/04/13 10:08:14;;;;;;;3.97;2.03;;;20.80;99.90;;;;;;5004958;28;20050;-79
2022/04/13 10:10:46;;;;;;;4.00;1.98;;;20.60;99.90;;;;;;5019110;28;20045;-80
2022/04/13 10:13:30;;;;;;;6.55;2.60;;;20.50;98.50;;;;;;5013104;28;20081;-80
2022/04/13 10:15:57;;;;;;;8.48;3.13;;;20.50;99.90;;;;;;5017642;28;20093;-82
2022/04/13 10:18:23;;;;;;;9.88;5.72;;;20.60;99.90;;;;;;5019190;28;20041;-82
2022/04/13 10:20:49;;;;;;;4.53;2.75;;;20.80;99.90;;;;;;5012331;28;20080;-82
2022/04/13 10:23:15;;;;;;;5.28;2.38;;;20.80;99.90;;;;;;5021180;28;20049;-82
2022/04/13 10:25:44;;;;;;;6.22;3.30;;;20.90;99.90;;;;;;5020559;28;20629;-82
2022/04/13 10:28:12;;;;;;;3.63;2.65;;;20.90;97.90;;;;;;5000315;28;20042;-83
2022/04/13 10:30:42;;;;;;;8.70;5.35;;;20.80;99.90;;;;;;5015952;28;20052;-83
2022/04/13 10:33:13;;;;;;;9.23;3.38;;;20.70;95.00;;;;;;5016303;28;20046;-82
2022/04/13 10:35:41;;;;;;;5.70;3.03;;;20.80;99.90;;;;;;5016320;28;20088;-82
2022/04/13 10:38:07;;;;;;;6.55;2.05;;;20.90;97.40;;;;;;5019123;28;20493;-84
2022/04/13 10:40:34;;;;;;;4.25;2.17;;;21.10;97.10;;;;;;5016509;28;20103;-84
2022/04/13 10:43:03;;;;;;;5.78;2.95;;;21.20;94.70;;;;;;5015333;28;20129;-83
2022/04/13 10:45:29;;;;;;;4.75;1.85;;;21.40;93.10;;;;;;5016910;28;20041;-83
2022/04/13 10:48:04;;;;;;;4.50;2.85;;;21.40;90.90;;;;;;4998105;28;20084;-82
2022/04/13 10:50:41;;;;;;;3.45;1.92;;;21.40;86.80;;;;;;5016195;28;20046;-79
2022/04/13 10:53:17;;;;;;;2.28;1.55;;;21.50;84.00;;;;;;5014549;28;20045;-81
2022/04/13 10:55:49;;;;;;;4.57;1.30;;;21.40;83.20;;;;;;5013415;28;20038;-81
2022/04/13 10:58:44;;;;;;;5.50;2.03;;;21.10;81.90;;;;;;5014068;28;20062;-79
2022/04/13 11:01:12;;;;;;;5.15;2.70;;;20.90;82.50;;;;;;5014991;28;20060;-79
2022/04/13 11:03:38;;;;;;;5.32;3.00;;;20.70;89.70;;;;;;5015330;28;20463;-79
2022/04/13 11:06:09;;;;;;;7.05;3.53;;;20.70;90.70;;;;;;5014825;28;20500;-79
2022/04/13 11:08:53;;;;;;;6.50;3.75;;;20.40;91.80;;;;;;5018984;28;20519;-83
2022/04/13 11:11:22;;;;;;;6.60;3.72;;;20.30;91.80;;;;;;5000509;28;20084;-83
2022/04/13 11:13:51;;;;;;;8.00;4.28;;;20.10;94.40;;;;;;5018066;28;20444;-82
2022/04/13 11:16:29;;;;;;;11.43;5.18;;;20.00;97.20;;;;;;5017060;28;20046;-83
2022/04/13 11:19:18;;;;;;;10.43;4.65;;;19.90;98.50;;;;;;4997959;28;20066;-83
2022/04/13 11:21:50;;;;;;;7.47;4.43;;;19.80;99.60;;;;;;4983258;28;20038;-82
2022/04/13 11:24:30;;;;;;;9.18;4.78;;;19.80;99.90;;;;;;4999497;28;20037;-84
2022/04/13 11:26:56;;;;;;;9.25;3.72;;;19.70;99.90;;;;;;5018576;28;20042;-82
2022/04/13 11:29:23;;;;;;;10.18;3.55;;;19.70;99.90;;;;;;5002808;28;20053;-83
2022/04/13 11:32:01;;;;;;;5.82;3.38;;;19.80;99.90;;;;;;5014358;28;20060;-82
2022/04/13 11:34:41;;;;;;;8.88;4.72;;;19.70;99.40;;;;;;4998281;28;20041;-82
2022/04/13 11:37:10;;;;;;;8.80;5.82;;;19.60;99.90;;;;;;5020077;28;20053;-82
2022/04/13 11:40:03;;;;;;;8.75;4.43;;;19.40;99.90;;;;;;5022808;28;20418;-82
2022/04/13 11:42:48;;;;;;;4.80;2.83;;;19.30;99.60;;;;;;5016514;28;20087;-83
2022/04/13 11:45:18;;;;;;;11.18;2.80;;;19.20;99.90;;;;;;5015283;28;20196;-82
2022/04/13 11:47:50;;;;;;;4.78;2.20;;;19.10;99.90;;;;;;4999959;28;20041;-83
2022/04/13 11:50:19;;;;;;;6.75;2.47;;;19.00;99.50;;;;;;5018640;28;20566;-83
2022/04/13 11:52:59;;;;;;;4.85;2.40;;;19.00;99.90;;;;;;5004393;28;20046;-83
2022/04/13 11:55:42;;;;;;;11.95;2.75;;;19.10;99.90;;;;;;5016141;28;20048;-82
2022/04/13 11:58:07;;;;;;;5.82;2.45;;;19.30;99.90;;;;;;5017156;28;20050;-82
2022/04/13 12:00:54;;;;;;;6.65;2.65;;;19.40;99.70;;;;;;5018787;28;20405;-82
2022/04/13 12:03:25;;;;;;;5.97;2.53;;;19.40;96.80;;;;;;5019999;28;20393;-82
2022/04/13 12:05:54;;;;;;;6.78;3.70;;;19.40;98.70;;;;;;5022255;28;20100;-82
2022/04/13 12:08:30;;;;;;;11.38;3.95;;;19.40;99.80;;;;;;5020718;28;20460;-82
2022/04/13 12:11:01;;;;;;;11.10;5.65;;;19.40;99.90;;;;;;5020256;28;20052;-82
2022/04/13 12:13:33;;;;;;;9.35;4.75;;;19.40;99.90;;;;;;5020171;28;20042;-82
2022/04/13 12:16:00;;;;;;;8.70;5.40;;;19.40;99.90;;;;;;5015984;28;20050;-82
2022/04/13 12:18:26;;;;;;;8.50;5.75;;;19.40;99.90;;;;;;5015649;28;20096;-82
2022/04/13 12:21:05;;;;;;;15.68;6.68;;;19.40;99.90;;;;;;5016523;28;20049;-83
2022/04/13 12:23:35;;;;;;;13.95;5.95;;;19.30;99.90;;;;;;5017583;28;20049;-82
2022/04/13 12:26:01;;;;;;;15.73;6.82;;;19.20;99.90;;;;;;5031400;28;20057;-83
2022/04/13 12:28:27;;;;;;;11.90;6.90;;;19.00;99.90;;;;;;5017071;28;20045;-79
2022/04/13 12:30:58;;;;;;;14.05;6.57;;;18.90;99.90;;;;;;4995958;28;20069;-80
2022/04/13 12:33:25;;;;;;;12.45;7.13;;;18.70;99.90;;;;;;5014114;28;20041;-79
2022/04/13 12:36:12;;;;;;;12.38;6.30;;;18.60;99.90;;;;;;4996531;28;20042;-79
2022/04/13 12:38:54;;;;;;;13.88;6.40;;;18.50;99.90;;;;;;5012032;28;20044;-80
2022/04/13 12:41:21;;;;;;;15.52;5.53;;;18.40;99.90;;;;;;5012264;28;20037;-79